sensor_id;sensor_type;location;lat;lon;timestamp;P1;durP1;ratioP1;P2;durP2;ratioP2
8462;SDS011;4268;52.506;13.462;2024-03-02T00:01:07;36.43;;;32.13;;
8462;SDS011;4268;52.506;13.462;2024-03-02T00:03:34;36.03;;;32.33;;
8462;SDS011;4268;52.506;13.462;2024-03-02T00:06:02;35.70;;;31.90;;
8462;SDS011;4268;52.506;13.462;2024-03-02T00:08:28;36.50;;;31.70;;
8462;SDS011;4268;52.506;13.462;2024-03-02T00:10:58;37.00;;;33.00;;
8462;SDS011;4268;52.506;13.462;2024-03-02T00:13:24;37.00;;;33.20;;
8462;SDS011;4268;52.506;13.462;2024-03-02T00:15:51;45.00;;;40.20;;
8462;SDS011;4268;52.506;13.462;2024-03-02T00:18:19;41.53;;;36.97;;
8462;SDS011;4268;52.506;13.462;2024-03-02T00:20:49;37.77;;;33.80;;
8462;SDS011;4268;52.506;13.462;2024-03-02T00:23:19;39.03;;;34.83;;
8462;SDS011;4268;52.506;13.462;2024-03-02T00:25:47;46.80;;;40.83;;
8462;SDS011;4268;52.506;13.462;2024-03-02T00:28:19;41.67;;;37.30;;
8462;SDS011;4268;52.506;13.462;2024-03-02T00:30:59;44.77;;;40.03;;
8462;SDS011;4268;52.506;13.462;2024-03-02T00:33:31;40.47;;;36.13;;
8462;SDS011;4268;52.506;13.462;2024-03-02T00:36:02;39.33;;;35.23;;
8462;SDS011;4268;52.506;13.462;2024-03-02T00:38:28;40.87;;;36.47;;
8462;SDS011;4268;52.506;13.462;2024-03-02T00:40:55;39.23;;;34.93;;
8462;SDS011;4268;52.506;13.462;2024-03-02T00:46:06;38.53;;;34.40;;
8462;SDS011;4268;52.506;13.462;2024-03-02T00:48:32;41.10;;;34.93;;
8462;SDS011;4268;52.506;13.462;2024-03-02T00:51:00;38.27;;;33.90;;
8462;SDS011;4268;52.506;13.462;2024-03-02T00:53:28;39.73;;;34.73;;
8462;SDS011;4268;52.506;13.462;2024-03-02T00:55:54;37.90;;;34.00;;
8462;SDS011;4268;52.506;13.462;2024-03-02T00:58:20;41.03;;;33.70;;
8462;SDS011;4268;52.506;13.462;2024-03-02T01:00:46;38.03;;;33.50;;
8462;SDS011;4268;52.506;13.462;2024-03-02T01:03:11;38.97;;;34.40;;
8462;SDS011;4268;52.506;13.462;2024-03-02T01:05:40;39.90;;;34.90;;
8462;SDS011;4268;52.506;13.462;2024-03-02T01:08:07;38.50;;;34.33;;
8462;SDS011;4268;52.506;13.462;2024-03-02T01:10:33;38.30;;;34.30;;
8462;SDS011;4268;52.506;13.462;2024-03-02T01:12:58;38.23;;;33.70;;
8462;SDS011;4268;52.506;13.462;2024-03-02T01:15:24;41.30;;;36.87;;
8462;SDS011;4268;52.506;13.462;2024-03-02T01:17:49;37.70;;;33.80;;
8462;SDS011;4268;52.506;13.462;2024-03-02T01:20:15;38.03;;;33.93;;
8462;SDS011;4268;52.506;13.462;2024-03-02T01:22:40;38.67;;;34.17;;
8462;SDS011;4268;52.506;13.462;2024-03-02T01:25:06;38.70;;;34.50;;
8462;SDS011;4268;52.506;13.462;2024-03-02T01:27:33;39.07;;;34.67;;
8462;SDS011;4268;52.506;13.462;2024-03-02T01:29:59;42.33;;;36.77;;
8462;SDS011;4268;52.506;13.462;2024-03-02T01:32:24;38.40;;;34.50;;
8462;SDS011;4268;52.506;13.462;2024-03-02T01:34:50;39.57;;;35.27;;
8462;SDS011;4268;52.506;13.462;2024-03-02T01:37:16;39.67;;;35.27;;
8462;SDS011;4268;52.506;13.462;2024-03-02T01:39:41;40.60;;;35.37;;
8462;SDS011;4268;52.506;13.462;2024-03-02T01:42:07;39.27;;;35.07;;
8462;SDS011;4268;52.506;13.462;2024-03-02T01:44:32;38.93;;;34.73;;
8462;SDS011;4268;52.506;13.462;2024-03-02T01:46:58;38.30;;;34.10;;
8462;SDS011;4268;52.506;13.462;2024-03-02T01:49:24;40.20;;;34.73;;
8462;SDS011;4268;52.506;13.462;2024-03-02T01:51:49;42.27;;;37.77;;
8462;SDS011;4268;52.506;13.462;2024-03-02T01:54:15;41.77;;;37.33;;
8462;SDS011;4268;52.506;13.462;2024-03-02T01:56:40;42.10;;;37.50;;
8462;SDS011;4268;52.506;13.462;2024-03-02T01:59:06;40.80;;;36.60;;
8462;SDS011;4268;52.506;13.462;2024-03-02T02:01:31;40.13;;;35.83;;
8462;SDS011;4268;52.506;13.462;2024-03-02T02:03:57;40.77;;;36.40;;
8462;SDS011;4268;52.506;13.462;2024-03-02T02:06:23;45.67;;;38.50;;
8462;SDS011;4268;52.506;13.462;2024-03-02T02:08:48;42.30;;;37.17;;
8462;SDS011;4268;52.506;13.462;2024-03-02T02:11:15;41.67;;;36.30;;
8462;SDS011;4268;52.506;13.462;2024-03-02T02:13:41;42.03;;;37.43;;
8462;SDS011;4268;52.506;13.462;2024-03-02T02:16:07;42.87;;;37.90;;
8462;SDS011;4268;52.506;13.462;2024-03-02T02:18:33;44.37;;;39.57;;
8462;SDS011;4268;52.506;13.462;2024-03-02T02:20:58;44.40;;;39.67;;
8462;SDS011;4268;52.506;13.462;2024-03-02T02:23:24;40.20;;;35.90;;
8462;SDS011;4268;52.506;13.462;2024-03-02T02:25:50;40.97;;;36.40;;
8462;SDS011;4268;52.506;13.462;2024-03-02T02:28:15;40.57;;;36.27;;
8462;SDS011;4268;52.506;13.462;2024-03-02T02:30:41;40.63;;;36.23;;
8462;SDS011;4268;52.506;13.462;2024-03-02T02:33:07;39.83;;;35.53;;
8462;SDS011;4268;52.506;13.462;2024-03-02T02:35:34;42.47;;;37.87;;
8462;SDS011;4268;52.506;13.462;2024-03-02T02:37:59;41.40;;;37.07;;
8462;SDS011;4268;52.506;13.462;2024-03-02T02:40:25;38.90;;;34.80;;
8462;SDS011;4268;52.506;13.462;2024-03-02T02:42:51;39.90;;;35.53;;
8462;SDS011;4268;52.506;13.462;2024-03-02T02:45:17;40.40;;;36.07;;
8462;SDS011;4268;52.506;13.462;2024-03-02T02:47:43;38.90;;;34.70;;
8462;SDS011;4268;52.506;13.462;2024-03-02T02:50:09;40.87;;;35.90;;
8462;SDS011;4268;52.506;13.462;2024-03-02T02:52:36;40.77;;;35.73;;
8462;SDS011;4268;52.506;13.462;2024-03-02T02:55:04;43.87;;;36.70;;
8462;SDS011;4268;52.506;13.462;2024-03-02T02:57:32;40.07;;;35.77;;
8462;SDS011;4268;52.506;13.462;2024-03-02T03:00:04;40.60;;;36.20;;
8462;SDS011;4268;52.506;13.462;2024-03-02T03:02:35;41.03;;;36.73;;
8462;SDS011;4268;52.506;13.462;2024-03-02T03:05:02;43.37;;;36.93;;
8462;SDS011;4268;52.506;13.462;2024-03-02T03:07:28;44.53;;;39.77;;
8462;SDS011;4268;52.506;13.462;2024-03-02T03:09:53;40.10;;;35.80;;
8462;SDS011;4268;52.506;13.462;2024-03-02T03:12:19;42.90;;;36.97;;
8462;SDS011;4268;52.506;13.462;2024-03-02T03:14:44;43.90;;;39.27;;
8462;SDS011;4268;52.506;13.462;2024-03-02T03:17:10;41.27;;;36.77;;
8462;SDS011;4268;52.506;13.462;2024-03-02T03:19:37;46.53;;;40.13;;
8462;SDS011;4268;52.506;13.462;2024-03-02T03:22:03;41.33;;;36.83;;
8462;SDS011;4268;52.506;13.462;2024-03-02T03:24:29;42.77;;;38.17;;
8462;SDS011;4268;52.506;13.462;2024-03-02T03:26:54;44.13;;;39.40;;
8462;SDS011;4268;52.506;13.462;2024-03-02T03:29:20;39.80;;;35.43;;
8462;SDS011;4268;52.506;13.462;2024-03-02T03:31:45;41.27;;;36.83;;
8462;SDS011;4268;52.506;13.462;2024-03-02T03:34:11;43.30;;;37.83;;
8462;SDS011;4268;52.506;13.462;2024-03-02T03:36:40;41.07;;;36.60;;
8462;SDS011;4268;52.506;13.462;2024-03-02T03:39:06;43.13;;;37.90;;
8462;SDS011;4268;52.506;13.462;2024-03-02T03:41:32;42.57;;;37.97;;
8462;SDS011;4268;52.506;13.462;2024-03-02T03:43:57;40.30;;;35.70;;
8462;SDS011;4268;52.506;13.462;2024-03-02T03:46:23;42.47;;;37.87;;
8462;SDS011;4268;52.506;13.462;2024-03-02T03:48:49;40.43;;;36.13;;
8462;SDS011;4268;52.506;13.462;2024-03-02T03:51:14;37.53;;;33.50;;
8462;SDS011;4268;52.506;13.462;2024-03-02T03:53:40;37.30;;;33.17;;
8462;SDS011;4268;52.506;13.462;2024-03-02T03:56:05;38.67;;;34.57;;
8462;SDS011;4268;52.506;13.462;2024-03-02T03:58:31;37.40;;;33.47;;
8462;SDS011;4268;52.506;13.462;2024-03-02T04:00:57;40.23;;;36.03;;
8462;SDS011;4268;52.506;13.462;2024-03-02T04:03:22;41.70;;;37.27;;
8462;SDS011;4268;52.506;13.462;2024-03-02T04:05:48;39.40;;;34.80;;
8462;SDS011;4268;52.506;13.462;2024-03-02T04:08:13;42.00;;;36.90;;
8462;SDS011;4268;52.506;13.462;2024-03-02T04:10:39;36.87;;;32.90;;
8462;SDS011;4268;52.506;13.462;2024-03-02T04:13:05;36.30;;;32.50;;
8462;SDS011;4268;52.506;13.462;2024-03-02T04:15:31;37.53;;;33.43;;
8462;SDS011;4268;52.506;13.462;2024-03-02T04:17:56;40.50;;;36.13;;
8462;SDS011;4268;52.506;13.462;2024-03-02T04:20:22;35.07;;;31.57;;
8462;SDS011;4268;52.506;13.462;2024-03-02T04:22:47;33.90;;;30.50;;
8462;SDS011;4268;52.506;13.462;2024-03-02T04:25:13;36.67;;;32.87;;
8462;SDS011;4268;52.506;13.462;2024-03-02T04:27:38;38.40;;;34.37;;
8462;SDS011;4268;52.506;13.462;2024-03-02T04:30:04;38.27;;;34.07;;
8462;SDS011;4268;52.506;13.462;2024-03-02T04:32:30;35.30;;;31.67;;
8462;SDS011;4268;52.506;13.462;2024-03-02T04:34:56;38.20;;;34.27;;
8462;SDS011;4268;52.506;13.462;2024-03-02T04:37:22;37.77;;;33.73;;
8462;SDS011;4268;52.506;13.462;2024-03-02T04:39:48;36.20;;;32.43;;
8462;SDS011;4268;52.506;13.462;2024-03-02T04:42:13;36.63;;;32.87;;
8462;SDS011;4268;52.506;13.462;2024-03-02T04:44:39;36.07;;;32.30;;
8462;SDS011;4268;52.506;13.462;2024-03-02T04:47:04;36.80;;;33.07;;
8462;SDS011;4268;52.506;13.462;2024-03-02T04:49:30;37.67;;;33.77;;
8462;SDS011;4268;52.506;13.462;2024-03-02T04:51:55;38.70;;;34.60;;
8462;SDS011;4268;52.506;13.462;2024-03-02T04:54:22;35.37;;;31.67;;
8462;SDS011;4268;52.506;13.462;2024-03-02T04:56:47;35.10;;;31.60;;
8462;SDS011;4268;52.506;13.462;2024-03-02T04:59:16;34.63;;;31.10;;
8462;SDS011;4268;52.506;13.462;2024-03-02T05:01:42;35.80;;;32.03;;
8462;SDS011;4268;52.506;13.462;2024-03-02T05:04:08;34.17;;;30.60;;
8462;SDS011;4268;52.506;13.462;2024-03-02T05:06:36;36.97;;;32.97;;
8462;SDS011;4268;52.506;13.462;2024-03-02T05:09:05;35.73;;;32.07;;
8462;SDS011;4268;52.506;13.462;2024-03-02T05:11:31;35.00;;;31.37;;
8462;SDS011;4268;52.506;13.462;2024-03-02T05:14:03;35.10;;;31.40;;
8462;SDS011;4268;52.506;13.462;2024-03-02T05:16:29;36.13;;;32.20;;
8462;SDS011;4268;52.506;13.462;2024-03-02T05:18:57;40.37;;;36.13;;
8462;SDS011;4268;52.506;13.462;2024-03-02T05:21:23;37.03;;;33.13;;
8462;SDS011;4268;52.506;13.462;2024-03-02T05:23:48;34.80;;;31.30;;
8462;SDS011;4268;52.506;13.462;2024-03-02T05:26:14;37.57;;;33.53;;
8462;SDS011;4268;52.506;13.462;2024-03-02T05:28:39;37.07;;;33.27;;
8462;SDS011;4268;52.506;13.462;2024-03-02T05:31:05;37.00;;;33.13;;
8462;SDS011;4268;52.506;13.462;2024-03-02T05:33:31;35.30;;;31.63;;
8462;SDS011;4268;52.506;13.462;2024-03-02T05:35:58;34.00;;;30.30;;
8462;SDS011;4268;52.506;13.462;2024-03-02T05:38:23;36.13;;;32.20;;
8462;SDS011;4268;52.506;13.462;2024-03-02T05:40:49;36.97;;;32.87;;
8462;SDS011;4268;52.506;13.462;2024-03-02T05:43:14;34.40;;;30.80;;
8462;SDS011;4268;52.506;13.462;2024-03-02T05:45:40;35.17;;;31.47;;
8462;SDS011;4268;52.506;13.462;2024-03-02T05:48:06;34.93;;;31.37;;
8462;SDS011;4268;52.506;13.462;2024-03-02T05:50:33;37.00;;;33.10;;
8462;SDS011;4268;52.506;13.462;2024-03-02T05:52:58;37.10;;;33.27;;
8462;SDS011;4268;52.506;13.462;2024-03-02T05:55:24;38.87;;;34.87;;
8462;SDS011;4268;52.506;13.462;2024-03-02T05:57:49;40.90;;;36.50;;
8462;SDS011;4268;52.506;13.462;2024-03-02T06:00:42;38.83;;;34.83;;
8462;SDS011;4268;52.506;13.462;2024-03-02T06:03:08;38.00;;;34.10;;
8462;SDS011;4268;52.506;13.462;2024-03-02T06:05:34;39.03;;;34.63;;
8462;SDS011;4268;52.506;13.462;2024-03-02T06:08:00;42.53;;;37.93;;
8462;SDS011;4268;52.506;13.462;2024-03-02T06:10:25;41.97;;;37.37;;
8462;SDS011;4268;52.506;13.462;2024-03-02T06:12:51;44.80;;;40.30;;
8462;SDS011;4268;52.506;13.462;2024-03-02T06:15:16;46.23;;;41.30;;
8462;SDS011;4268;52.506;13.462;2024-03-02T06:17:42;40.80;;;36.23;;
8462;SDS011;4268;52.506;13.462;2024-03-02T06:20:08;42.17;;;37.77;;
8462;SDS011;4268;52.506;13.462;2024-03-02T06:22:34;40.07;;;35.97;;
8462;SDS011;4268;52.506;13.462;2024-03-02T06:25:00;41.50;;;37.00;;
8462;SDS011;4268;52.506;13.462;2024-03-02T06:27:25;39.33;;;35.13;;
8462;SDS011;4268;52.506;13.462;2024-03-02T06:29:51;43.20;;;38.57;;
8462;SDS011;4268;52.506;13.462;2024-03-02T06:32:17;41.00;;;36.60;;
8462;SDS011;4268;52.506;13.462;2024-03-02T06:34:42;42.20;;;37.53;;
8462;SDS011;4268;52.506;13.462;2024-03-02T06:37:08;42.57;;;37.93;;
8462;SDS011;4268;52.506;13.462;2024-03-02T06:39:33;44.37;;;39.63;;
8462;SDS011;4268;52.506;13.462;2024-03-02T06:41:59;44.53;;;39.80;;
8462;SDS011;4268;52.506;13.462;2024-03-02T06:44:25;47.83;;;41.33;;
8462;SDS011;4268;52.506;13.462;2024-03-02T06:46:50;42.87;;;38.10;;
8462;SDS011;4268;52.506;13.462;2024-03-02T06:49:16;41.13;;;36.80;;
8462;SDS011;4268;52.506;13.462;2024-03-02T06:51:43;43.43;;;38.70;;
8462;SDS011;4268;52.506;13.462;2024-03-02T06:54:08;39.90;;;35.70;;
8462;SDS011;4268;52.506;13.462;2024-03-02T06:56:34;38.43;;;34.33;;
8462;SDS011;4268;52.506;13.462;2024-03-02T06:58:59;42.53;;;37.90;;
8462;SDS011;4268;52.506;13.462;2024-03-02T07:01:25;41.70;;;37.20;;
8462;SDS011;4268;52.506;13.462;2024-03-02T07:03:51;41.57;;;36.87;;
8462;SDS011;4268;52.506;13.462;2024-03-02T07:06:17;39.27;;;35.07;;
8462;SDS011;4268;52.506;13.462;2024-03-02T07:08:42;44.03;;;38.00;;
8462;SDS011;4268;52.506;13.462;2024-03-02T07:11:08;43.87;;;39.07;;
8462;SDS011;4268;52.506;13.462;2024-03-02T07:13:34;42.97;;;38.30;;
8462;SDS011;4268;52.506;13.462;2024-03-02T07:16:00;40.80;;;36.33;;
8462;SDS011;4268;52.506;13.462;2024-03-02T07:18:31;41.50;;;37.10;;
8462;SDS011;4268;52.506;13.462;2024-03-02T07:20:58;41.80;;;36.70;;
8462;SDS011;4268;52.506;13.462;2024-03-02T07:23:25;40.17;;;34.97;;
8462;SDS011;4268;52.506;13.462;2024-03-02T07:25:55;39.13;;;35.03;;
8462;SDS011;4268;52.506;13.462;2024-03-02T07:28:21;38.57;;;34.47;;
8462;SDS011;4268;52.506;13.462;2024-03-02T07:30:57;39.60;;;34.53;;
8462;SDS011;4268;52.506;13.462;2024-03-02T07:33:23;39.27;;;34.27;;
8462;SDS011;4268;52.506;13.462;2024-03-02T07:35:49;42.87;;;38.47;;
8462;SDS011;4268;52.506;13.462;2024-03-02T07:38:15;38.07;;;34.10;;
8462;SDS011;4268;52.506;13.462;2024-03-02T07:40:40;40.97;;;36.70;;
8462;SDS011;4268;52.506;13.462;2024-03-02T07:43:06;39.43;;;35.33;;
8462;SDS011;4268;52.506;13.462;2024-03-02T07:45:31;37.70;;;33.70;;
8462;SDS011;4268;52.506;13.462;2024-03-02T07:47:57;38.90;;;34.90;;
8462;SDS011;4268;52.506;13.462;2024-03-02T07:50:23;38.53;;;34.43;;
8462;SDS011;4268;52.506;13.462;2024-03-02T07:52:48;37.73;;;33.63;;
8462;SDS011;4268;52.506;13.462;2024-03-02T07:55:14;38.93;;;34.93;;
8462;SDS011;4268;52.506;13.462;2024-03-02T07:57:40;40.23;;;35.77;;
8462;SDS011;4268;52.506;13.462;2024-03-02T08:00:05;37.13;;;33.13;;
8462;SDS011;4268;52.506;13.462;2024-03-02T08:02:31;36.40;;;32.53;;
8462;SDS011;4268;52.506;13.462;2024-03-02T08:04:57;34.90;;;31.20;;
8462;SDS011;4268;52.506;13.462;2024-03-02T08:07:22;39.13;;;33.83;;
8462;SDS011;4268;52.506;13.462;2024-03-02T08:09:48;34.77;;;31.07;;
8462;SDS011;4268;52.506;13.462;2024-03-02T08:12:14;35.33;;;31.70;;
8462;SDS011;4268;52.506;13.462;2024-03-02T08:14:39;36.13;;;32.43;;
8462;SDS011;4268;52.506;13.462;2024-03-02T08:17:05;36.13;;;32.53;;
8462;SDS011;4268;52.506;13.462;2024-03-02T08:19:34;37.00;;;33.17;;
8462;SDS011;4268;52.506;13.462;2024-03-02T08:22:00;37.53;;;33.43;;
8462;SDS011;4268;52.506;13.462;2024-03-02T08:24:26;37.80;;;33.80;;
8462;SDS011;4268;52.506;13.462;2024-03-02T08:26:51;38.10;;;33.53;;
8462;SDS011;4268;52.506;13.462;2024-03-02T08:29:17;37.00;;;33.20;;
8462;SDS011;4268;52.506;13.462;2024-03-02T08:31:43;36.70;;;32.63;;
8462;SDS011;4268;52.506;13.462;2024-03-02T08:34:08;33.97;;;30.47;;
8462;SDS011;4268;52.506;13.462;2024-03-02T08:36:34;35.50;;;31.80;;
8462;SDS011;4268;52.506;13.462;2024-03-02T08:38:59;33.63;;;30.10;;
8462;SDS011;4268;52.506;13.462;2024-03-02T08:41:25;32.77;;;29.40;;
8462;SDS011;4268;52.506;13.462;2024-03-02T08:43:50;34.97;;;29.30;;
8462;SDS011;4268;52.506;13.462;2024-03-02T08:46:16;32.07;;;28.53;;
8462;SDS011;4268;52.506;13.462;2024-03-02T08:48:42;33.33;;;29.83;;
8462;SDS011;4268;52.506;13.462;2024-03-02T08:51:07;33.50;;;29.90;;
8462;SDS011;4268;52.506;13.462;2024-03-02T08:53:33;33.27;;;29.70;;
8462;SDS011;4268;52.506;13.462;2024-03-02T08:55:59;32.80;;;29.47;;
8462;SDS011;4268;52.506;13.462;2024-03-02T08:58:24;33.33;;;29.80;;
8462;SDS011;4268;52.506;13.462;2024-03-02T09:00:50;34.00;;;30.40;;
8462;SDS011;4268;52.506;13.462;2024-03-02T09:03:16;32.93;;;29.40;;
8462;SDS011;4268;52.506;13.462;2024-03-02T09:05:41;32.90;;;29.50;;
8462;SDS011;4268;52.506;13.462;2024-03-02T09:08:07;31.87;;;28.70;;
8462;SDS011;4268;52.506;13.462;2024-03-02T09:10:33;35.77;;;31.10;;
8462;SDS011;4268;52.506;13.462;2024-03-02T09:12:59;34.50;;;30.83;;
8462;SDS011;4268;52.506;13.462;2024-03-02T09:15:24;32.77;;;29.37;;
8462;SDS011;4268;52.506;13.462;2024-03-02T09:17:50;33.57;;;30.03;;
8462;SDS011;4268;52.506;13.462;2024-03-02T09:20:15;35.20;;;31.60;;
8462;SDS011;4268;52.506;13.462;2024-03-02T09:22:41;33.77;;;30.07;;
8462;SDS011;4268;52.506;13.462;2024-03-02T09:25:07;33.60;;;29.50;;
8462;SDS011;4268;52.506;13.462;2024-03-02T09:27:35;33.90;;;30.23;;
8462;SDS011;4268;52.506;13.462;2024-03-02T09:30:02;33.47;;;30.00;;
8462;SDS011;4268;52.506;13.462;2024-03-02T09:32:29;33.40;;;29.93;;
8462;SDS011;4268;52.506;13.462;2024-03-02T09:34:55;29.37;;;26.27;;
8462;SDS011;4268;52.506;13.462;2024-03-02T09:37:21;32.90;;;29.23;;
8462;SDS011;4268;52.506;13.462;2024-03-02T09:39:46;31.33;;;28.03;;
8462;SDS011;4268;52.506;13.462;2024-03-02T09:42:12;32.70;;;29.30;;
8462;SDS011;4268;52.506;13.462;2024-03-02T09:44:38;31.90;;;28.43;;
8462;SDS011;4268;52.506;13.462;2024-03-02T09:47:04;30.77;;;27.67;;
8462;SDS011;4268;52.506;13.462;2024-03-02T09:49:31;28.03;;;25.03;;
8462;SDS011;4268;52.506;13.462;2024-03-02T09:51:57;28.87;;;25.80;;
8462;SDS011;4268;52.506;13.462;2024-03-02T09:54:22;27.87;;;24.97;;
8462;SDS011;4268;52.506;13.462;2024-03-02T09:56:48;27.80;;;24.93;;
8462;SDS011;4268;52.506;13.462;2024-03-02T09:59:15;27.00;;;24.30;;
8462;SDS011;4268;52.506;13.462;2024-03-02T10:02:02;27.53;;;24.67;;
8462;SDS011;4268;52.506;13.462;2024-03-02T10:04:31;28.80;;;25.87;;
8462;SDS011;4268;52.506;13.462;2024-03-02T10:07:30;29.13;;;26.13;;
8462;SDS011;4268;52.506;13.462;2024-03-02T10:09:49;26.57;;;23.87;;
8462;SDS011;4268;52.506;13.462;2024-03-02T10:12:15;28.40;;;25.50;;
8462;SDS011;4268;52.506;13.462;2024-03-02T10:14:42;28.03;;;25.03;;
8462;SDS011;4268;52.506;13.462;2024-03-02T10:17:09;26.67;;;23.97;;
8462;SDS011;4268;52.506;13.462;2024-03-02T10:19:36;26.00;;;23.40;;
8462;SDS011;4268;52.506;13.462;2024-03-02T10:22:03;25.70;;;23.10;;
8462;SDS011;4268;52.506;13.462;2024-03-02T10:24:42;26.03;;;23.53;;
8462;SDS011;4268;52.506;13.462;2024-03-02T10:27:10;25.47;;;22.97;;
8462;SDS011;4268;52.506;13.462;2024-03-02T10:29:40;25.33;;;22.83;;
8462;SDS011;4268;52.506;13.462;2024-03-02T10:32:08;22.97;;;20.67;;
8462;SDS011;4268;52.506;13.462;2024-03-02T10:34:36;24.03;;;21.63;;
8462;SDS011;4268;52.506;13.462;2024-03-02T10:37:02;25.07;;;22.67;;
8462;SDS011;4268;52.506;13.462;2024-03-02T10:39:28;22.63;;;20.33;;
8462;SDS011;4268;52.506;13.462;2024-03-02T10:41:54;23.27;;;20.97;;
8462;SDS011;4268;52.506;13.462;2024-03-02T10:44:21;23.33;;;21.03;;
8462;SDS011;4268;52.506;13.462;2024-03-02T10:46:47;21.13;;;19.03;;
8462;SDS011;4268;52.506;13.462;2024-03-02T10:49:15;21.23;;;19.20;;
8462;SDS011;4268;52.506;13.462;2024-03-02T10:51:42;20.43;;;18.40;;
8462;SDS011;4268;52.506;13.462;2024-03-02T10:54:08;19.70;;;17.80;;
8462;SDS011;4268;52.506;13.462;2024-03-02T10:56:37;19.33;;;17.40;;
8462;SDS011;4268;52.506;13.462;2024-03-02T10:59:27;18.93;;;17.03;;
8462;SDS011;4268;52.506;13.462;2024-03-02T11:01:58;19.43;;;17.53;;
8462;SDS011;4268;52.506;13.462;2024-03-02T11:04:25;20.23;;;18.23;;
8462;SDS011;4268;52.506;13.462;2024-03-02T11:06:52;18.87;;;17.03;;
8462;SDS011;4268;52.506;13.462;2024-03-02T11:09:25;17.30;;;15.70;;
8462;SDS011;4268;52.506;13.462;2024-03-02T11:14:53;18.37;;;16.57;;
8462;SDS011;4268;52.506;13.462;2024-03-02T11:17:21;19.10;;;16.97;;
8462;SDS011;4268;52.506;13.462;2024-03-02T11:19:48;19.50;;;17.40;;
8462;SDS011;4268;52.506;13.462;2024-03-02T11:22:14;18.10;;;16.40;;
8462;SDS011;4268;52.506;13.462;2024-03-02T11:24:50;19.23;;;17.37;;
8462;SDS011;4268;52.506;13.462;2024-03-02T11:27:58;19.27;;;17.47;;
8462;SDS011;4268;52.506;13.462;2024-03-02T11:32:56;18.57;;;16.67;;
8462;SDS011;4268;52.506;13.462;2024-03-02T11:35:28;19.07;;;17.03;;
8462;SDS011;4268;52.506;13.462;2024-03-02T11:37:54;18.43;;;16.53;;
8462;SDS011;4268;52.506;13.462;2024-03-02T11:40:23;20.17;;;18.17;;
8462;SDS011;4268;52.506;13.462;2024-03-02T11:42:49;18.47;;;16.60;;
8462;SDS011;4268;52.506;13.462;2024-03-02T11:45:16;19.70;;;17.70;;
8462;SDS011;4268;52.506;13.462;2024-03-02T11:47:55;20.10;;;18.17;;
8462;SDS011;4268;52.506;13.462;2024-03-02T11:50:35;20.93;;;17.60;;
8462;SDS011;4268;52.506;13.462;2024-03-02T11:53:08;20.13;;;17.17;;
8462;SDS011;4268;52.506;13.462;2024-03-02T11:55:38;19.83;;;17.93;;
8462;SDS011;4268;52.506;13.462;2024-03-02T11:58:06;18.50;;;16.70;;
8462;SDS011;4268;52.506;13.462;2024-03-02T12:00:32;21.17;;;19.07;;
8462;SDS011;4268;52.506;13.462;2024-03-02T12:03:04;18.93;;;17.13;;
8462;SDS011;4268;52.506;13.462;2024-03-02T12:05:31;19.30;;;17.40;;
8462;SDS011;4268;52.506;13.462;2024-03-02T12:07:58;18.57;;;16.63;;
8462;SDS011;4268;52.506;13.462;2024-03-02T12:10:25;17.97;;;16.20;;
8462;SDS011;4268;52.506;13.462;2024-03-02T12:13:00;17.87;;;16.17;;
8462;SDS011;4268;52.506;13.462;2024-03-02T12:15:34;16.10;;;14.53;;
8462;SDS011;4268;52.506;13.462;2024-03-02T12:18:05;15.80;;;14.30;;
8462;SDS011;4268;52.506;13.462;2024-03-02T12:20:31;15.17;;;13.77;;
8462;SDS011;4268;52.506;13.462;2024-03-02T12:22:59;15.77;;;14.07;;
8462;SDS011;4268;52.506;13.462;2024-03-02T12:25:26;15.10;;;13.53;;
8462;SDS011;4268;52.506;13.462;2024-03-02T12:27:53;15.43;;;13.93;;
8462;SDS011;4268;52.506;13.462;2024-03-02T12:30:20;15.57;;;14.07;;
8462;SDS011;4268;52.506;13.462;2024-03-02T12:32:47;14.67;;;13.33;;
8462;SDS011;4268;52.506;13.462;2024-03-02T12:35:13;15.27;;;13.87;;
8462;SDS011;4268;52.506;13.462;2024-03-02T12:37:45;14.73;;;13.33;;
8462;SDS011;4268;52.506;13.462;2024-03-02T12:40:12;16.47;;;14.87;;
8462;SDS011;4268;52.506;13.462;2024-03-02T12:42:38;18.47;;;16.57;;
8462;SDS011;4268;52.506;13.462;2024-03-02T12:45:08;14.80;;;13.33;;
8462;SDS011;4268;52.506;13.462;2024-03-02T12:47:34;14.53;;;13.23;;
8462;SDS011;4268;52.506;13.462;2024-03-02T12:50:00;15.70;;;14.20;;
8462;SDS011;4268;52.506;13.462;2024-03-02T12:52:26;14.10;;;12.80;;
8462;SDS011;4268;52.506;13.462;2024-03-02T12:54:52;13.67;;;12.37;;
8462;SDS011;4268;52.506;13.462;2024-03-02T12:57:26;13.10;;;12.00;;
8462;SDS011;4268;52.506;13.462;2024-03-02T12:59:57;13.87;;;12.47;;
8462;SDS011;4268;52.506;13.462;2024-03-02T13:02:23;12.10;;;10.93;;
8462;SDS011;4268;52.506;13.462;2024-03-02T13:04:53;13.47;;;12.23;;
8462;SDS011;4268;52.506;13.462;2024-03-02T13:07:23;13.00;;;11.80;;
8462;SDS011;4268;52.506;13.462;2024-03-02T13:09:49;14.80;;;13.40;;
8462;SDS011;4268;52.506;13.462;2024-03-02T13:12:15;13.30;;;12.10;;
8462;SDS011;4268;52.506;13.462;2024-03-02T13:14:42;14.77;;;13.37;;
8462;SDS011;4268;52.506;13.462;2024-03-02T13:17:10;13.67;;;12.40;;
8462;SDS011;4268;52.506;13.462;2024-03-02T13:19:39;15.10;;;13.70;;
8462;SDS011;4268;52.506;13.462;2024-03-02T13:22:16;16.57;;;14.90;;
8462;SDS011;4268;52.506;13.462;2024-03-02T13:24:41;15.97;;;14.37;;
8462;SDS011;4268;52.506;13.462;2024-03-02T13:27:07;14.70;;;13.27;;
8462;SDS011;4268;52.506;13.462;2024-03-02T13:29:34;14.83;;;13.43;;
8462;SDS011;4268;52.506;13.462;2024-03-02T13:32:00;14.40;;;13.10;;
8462;SDS011;4268;52.506;13.462;2024-03-02T13:34:25;13.73;;;12.53;;
8462;SDS011;4268;52.506;13.462;2024-03-02T13:36:51;13.63;;;12.33;;
8462;SDS011;4268;52.506;13.462;2024-03-02T13:39:16;14.40;;;13.10;;
8462;SDS011;4268;52.506;13.462;2024-03-02T13:41:42;13.57;;;12.37;;
8462;SDS011;4268;52.506;13.462;2024-03-02T13:44:09;13.60;;;12.40;;
8462;SDS011;4268;52.506;13.462;2024-03-02T13:46:35;12.97;;;11.60;;
8462;SDS011;4268;52.506;13.462;2024-03-02T13:49:00;12.53;;;11.40;;
8462;SDS011;4268;52.506;13.462;2024-03-02T13:51:26;13.00;;;11.80;;
8462;SDS011;4268;52.506;13.462;2024-03-02T13:53:52;12.63;;;11.53;;
8462;SDS011;4268;52.506;13.462;2024-03-02T13:56:18;12.30;;;11.20;;
8462;SDS011;4268;52.506;13.462;2024-03-02T13:58:43;12.37;;;11.27;;
8462;SDS011;4268;52.506;13.462;2024-03-02T14:01:11;10.73;;;9.73;;
8462;SDS011;4268;52.506;13.462;2024-03-02T14:03:36;11.67;;;10.67;;
8462;SDS011;4268;52.506;13.462;2024-03-02T14:06:02;12.07;;;10.93;;
8462;SDS011;4268;52.506;13.462;2024-03-02T14:08:28;11.80;;;10.70;;
8462;SDS011;4268;52.506;13.462;2024-03-02T14:10:54;11.83;;;10.77;;
8462;SDS011;4268;52.506;13.462;2024-03-02T14:13:22;12.80;;;11.60;;
8462;SDS011;4268;52.506;13.462;2024-03-02T14:15:48;11.70;;;10.70;;
8462;SDS011;4268;52.506;13.462;2024-03-02T14:18:13;10.90;;;9.90;;
8462;SDS011;4268;52.506;13.462;2024-03-02T14:20:39;10.10;;;9.10;;
8462;SDS011;4268;52.506;13.462;2024-03-02T14:23:04;11.17;;;10.17;;
8462;SDS011;4268;52.506;13.462;2024-03-02T14:25:30;10.37;;;9.40;;
8462;SDS011;4268;52.506;13.462;2024-03-02T14:27:58;9.90;;;9.03;;
8462;SDS011;4268;52.506;13.462;2024-03-02T14:30:24;11.30;;;10.07;;
8462;SDS011;4268;52.506;13.462;2024-03-02T14:32:49;11.17;;;10.17;;
8462;SDS011;4268;52.506;13.462;2024-03-02T14:35:16;13.13;;;11.93;;
8462;SDS011;4268;52.506;13.462;2024-03-02T14:37:41;11.73;;;10.67;;
8462;SDS011;4268;52.506;13.462;2024-03-02T14:40:07;11.10;;;10.10;;
8462;SDS011;4268;52.506;13.462;2024-03-02T14:42:34;12.27;;;11.17;;